createdAt,value
2022-09-07T00:02:20.789Z,17.38
2022-09-07T00:04:47.325Z,17.46
2022-09-07T00:07:13.913Z,17.46
2022-09-07T00:09:40.458Z,17.51
2022-09-07T00:12:07.046Z,17.52
2022-09-07T00:14:34.267Z,17.51
2022-09-07T00:17:00.774Z,17.48
2022-09-07T00:19:27.305Z,17.26
2022-09-07T00:21:53.866Z,17.08
2022-09-07T00:24:20.398Z,17.04
2022-09-07T00:26:46.996Z,17.13
2022-09-07T00:29:13.573Z,17.10
2022-09-07T00:31:40.266Z,17.19
2022-09-07T00:34:07.281Z,17.14
2022-09-07T00:36:33.894Z,17.21
2022-09-07T00:39:00.429Z,17.08
2022-09-07T00:41:27.021Z,17.13
2022-09-07T00:43:54.738Z,17.21
2022-09-07T00:46:22.868Z,17.20
2022-09-07T00:48:49.466Z,17.18
2022-09-07T00:51:20.231Z,17.14
2022-09-07T00:53:53.804Z,17.28
2022-09-07T00:56:22.210Z,17.19
2022-09-07T00:58:48.903Z,17.05
2022-09-07T01:01:16.974Z,17.06
2022-09-07T01:03:45.275Z,17.12
2022-09-07T01:06:15.742Z,17.17
2022-09-07T01:08:43.194Z,17.25
2022-09-07T01:11:10.611Z,17.32
2022-09-07T01:13:38.825Z,17.44
2022-09-07T01:16:08.523Z,17.27
2022-09-07T01:18:50.383Z,17.09
2022-09-07T01:21:35.958Z,17.14
2022-09-07T01:24:14.497Z,17.30
2022-09-07T01:26:59.657Z,17.14
2022-09-07T01:29:26.146Z,17.03
2022-09-07T01:32:01.624Z,17.12
2022-09-07T01:34:28.431Z,17.22
2022-09-07T01:37:13.917Z,17.06
2022-09-07T01:39:46.478Z,17.06
2022-09-07T01:42:14.962Z,17.19
2022-09-07T01:44:41.533Z,17.10
2022-09-07T01:47:31.394Z,17.01
2022-09-07T01:50:16.239Z,17.06
2022-09-07T01:53:01.594Z,17.11
2022-09-07T01:55:34.011Z,17.00
2022-09-07T01:58:06.602Z,16.93
2022-09-07T02:00:34.398Z,16.99
2022-09-07T02:03:05.360Z,17.03
2022-09-07T02:05:39.681Z,16.95
2022-09-07T02:08:09.051Z,16.95
2022-09-07T02:10:39.023Z,16.90
2022-09-07T02:13:10.111Z,16.94
2022-09-07T02:15:37.121Z,16.86
2022-09-07T02:18:05.575Z,16.74
2022-09-07T02:20:34.458Z,16.78
2022-09-07T02:23:04.504Z,16.89
2022-09-07T02:25:38.867Z,16.89
2022-09-07T02:28:09.275Z,16.92
2022-09-07T02:30:35.981Z,16.91
2022-09-07T02:33:02.590Z,16.92
2022-09-07T02:35:29.149Z,16.91
2022-09-07T02:37:56.756Z,16.82
2022-09-07T02:40:23.286Z,16.89
2022-09-07T02:42:50.542Z,16.90
2022-09-07T02:45:17.458Z,17.05
2022-09-07T02:47:54.966Z,16.86
2022-09-07T02:50:24.365Z,16.76
2022-09-07T02:52:50.863Z,16.74
2022-09-07T02:55:31.624Z,16.79
2022-09-07T02:58:15.122Z,16.77
2022-09-07T03:00:59.180Z,16.92
2022-09-07T03:03:28.701Z,16.90
2022-09-07T03:05:58.903Z,16.99
2022-09-07T03:08:31.985Z,17.29
2022-09-07T03:10:59.243Z,17.34
2022-09-07T03:13:27.103Z,16.96
2022-09-07T03:15:56.137Z,16.65
2022-09-07T03:18:23.823Z,16.55
2022-09-07T03:20:50.353Z,16.53
2022-09-07T03:23:16.906Z,16.45
2022-09-07T03:25:43.454Z,16.47
2022-09-07T03:28:10.366Z,16.54
2022-09-07T03:30:37.032Z,16.64
2022-09-07T03:33:03.678Z,16.58
2022-09-07T03:35:30.298Z,16.57
2022-09-07T03:37:56.844Z,16.54
2022-09-07T03:40:23.434Z,16.50
2022-09-07T03:42:50.404Z,16.47
2022-09-07T03:45:17.069Z,16.58
2022-09-07T03:47:44.015Z,16.56
2022-09-07T03:50:10.598Z,16.56
2022-09-07T03:52:37.725Z,16.56
2022-09-07T03:55:04.546Z,16.53
2022-09-07T03:57:31.187Z,16.61
2022-09-07T03:59:57.743Z,16.53
2022-09-07T04:02:24.401Z,16.43
2022-09-07T04:04:50.989Z,16.55
2022-09-07T04:07:17.550Z,16.52
2022-09-07T04:09:44.086Z,16.59
2022-09-07T04:12:10.649Z,16.74
2022-09-07T04:14:37.150Z,16.82
2022-09-07T04:17:03.868Z,16.86
2022-09-07T04:19:30.685Z,16.93
2022-09-07T04:21:57.253Z,16.90
2022-09-07T04:24:23.827Z,16.78
2022-09-07T04:26:50.386Z,16.92
2022-09-07T04:29:16.920Z,17.06
2022-09-07T04:31:43.430Z,17.14
2022-09-07T04:34:10.339Z,17.55
2022-09-07T04:36:36.845Z,17.44
2022-09-07T04:39:04.527Z,17.39
2022-09-07T04:41:32.756Z,17.49
2022-09-07T04:44:00.358Z,17.60
2022-09-07T04:46:28.849Z,17.58
2022-09-07T04:48:59.083Z,17.51
2022-09-07T04:51:26.980Z,17.58
2022-09-07T04:53:54.340Z,17.70
2022-09-07T04:56:21.843Z,17.99
2022-09-07T04:58:48.759Z,17.73
2022-09-07T05:01:16.340Z,17.73
2022-09-07T05:03:43.545Z,17.85
2022-09-07T05:06:10.468Z,17.83
2022-09-07T05:08:38.072Z,17.82
2022-09-07T05:11:05.025Z,17.84
2022-09-07T05:13:31.882Z,17.91
2022-09-07T05:15:59.262Z,17.83
2022-09-07T05:18:26.062Z,17.93
2022-09-07T05:20:52.597Z,17.86
2022-09-07T05:23:19.129Z,17.82
2022-09-07T05:25:46.550Z,17.61
2022-09-07T05:28:18.573Z,17.74
2022-09-07T05:36:20.546Z,18.33
2022-09-07T05:38:47.454Z,18.05
2022-09-07T05:41:15.214Z,18.09
2022-09-07T05:46:29.038Z,18.13
2022-09-07T05:48:56.502Z,17.84
2022-09-07T05:51:23.053Z,17.71
2022-09-07T05:53:50.639Z,17.80
2022-09-07T05:56:17.592Z,17.49
2022-09-07T05:58:47.678Z,17.51
2022-09-07T06:01:14.201Z,18.04
2022-09-07T06:03:41.690Z,18.01
2022-09-07T06:06:12.497Z,18.12
2022-09-07T06:08:39.973Z,18.05
2022-09-07T06:11:07.595Z,18.16
2022-09-07T06:13:34.562Z,18.47
2022-09-07T06:16:01.955Z,18.29
2022-09-07T06:18:32.626Z,18.13
2022-09-07T06:21:06.090Z,18.81
2022-09-07T06:23:33.217Z,19.06
2022-09-07T06:25:59.747Z,19.28
2022-09-07T06:28:47.705Z,19.58
2022-09-07T06:31:17.417Z,19.43
2022-09-07T06:33:50.683Z,19.32
2022-09-07T06:36:21.877Z,19.15
2022-09-07T06:38:49.190Z,19.48
2022-09-07T06:44:06.309Z,19.98
2022-09-07T06:49:19.714Z,20.92
2022-09-07T06:51:46.297Z,20.99
2022-09-07T06:56:59.370Z,21.83
2022-09-07T06:59:25.911Z,21.05
2022-09-07T07:01:52.605Z,20.75
2022-09-07T07:04:19.253Z,20.93
2022-09-07T07:06:45.845Z,20.65
2022-09-07T07:09:13.251Z,20.47
2022-09-07T07:11:39.954Z,20.34
2022-09-07T07:14:06.543Z,20.15
2022-09-07T07:16:33.177Z,20.07
2022-09-07T07:18:59.793Z,19.98
2022-09-07T07:21:28.920Z,20.26
2022-09-07T07:24:03.871Z,20.19
2022-09-07T07:26:33.670Z,19.98
2022-09-07T07:29:00.629Z,19.84
2022-09-07T07:31:28.223Z,20.29
2022-09-07T07:33:55.114Z,20.47
2022-09-07T07:36:23.187Z,20.52
2022-09-07T07:44:13.882Z,21.25
2022-09-07T07:46:40.503Z,21.07
2022-09-07T07:49:07.092Z,21.31
2022-09-07T07:52:49.952Z,21.36
2022-09-07T07:54:20.306Z,21.83
2022-09-07T07:56:47.053Z,22.25
2022-09-07T07:59:15.776Z,21.99
2022-09-07T08:01:43.765Z,21.63
2022-09-07T08:04:10.455Z,21.81
2022-09-07T08:06:37.770Z,22.46
2022-09-07T08:09:04.327Z,22.53
2022-09-07T08:11:31.731Z,23.63
2022-09-07T08:14:00.265Z,23.94
2022-09-07T08:16:27.023Z,23.67
2022-09-07T08:18:53.699Z,24.02
2022-09-07T08:21:20.221Z,23.93
2022-09-07T08:23:46.721Z,24.03
2022-09-07T08:26:13.215Z,24.51
2022-09-07T08:28:40.947Z,24.05
2022-09-07T08:31:08.613Z,24.86
2022-09-07T08:33:37.637Z,25.66
2022-09-07T08:36:04.993Z,25.71
2022-09-07T08:38:32.224Z,24.82
2022-09-07T08:40:59.287Z,25.20
2022-09-07T08:43:29.168Z,25.86
2022-09-07T08:45:59.886Z,26.20
2022-09-07T08:48:31.848Z,26.11
2022-09-07T08:51:02.446Z,25.97
2022-09-07T08:53:29.528Z,26.93
2022-09-07T08:55:59.066Z,25.35
2022-09-07T08:58:47.555Z,25.61
2022-09-07T09:01:31.320Z,26.28
2022-09-07T09:06:44.783Z,24.48
2022-09-07T09:09:30.266Z,25.90
2022-09-07T09:12:02.566Z,25.92
2022-09-07T09:14:47.453Z,26.20
2022-09-07T09:17:23.399Z,26.54
2022-09-07T09:20:13.206Z,27.30
2022-09-07T09:22:39.765Z,26.04
2022-09-07T09:25:15.825Z,26.12
2022-09-07T09:27:42.345Z,26.24
2022-09-07T09:30:13.406Z,26.19
2022-09-07T09:32:41.662Z,25.82
2022-09-07T09:35:14.307Z,26.05
2022-09-07T09:37:42.223Z,25.85
2022-09-07T09:40:26.080Z,26.78
2022-09-07T09:43:18.632Z,26.42
2022-09-07T09:48:39.229Z,26.81
2022-09-07T09:54:02.910Z,26.61
2022-09-07T09:56:39.811Z,26.91
2022-09-07T10:05:27.433Z,28.41
2022-09-07T10:07:54.275Z,27.53
2022-09-07T10:10:20.960Z,28.12
2022-09-07T10:12:47.430Z,28.71
2022-09-07T10:15:33.686Z,29.04
2022-09-07T10:18:05.858Z,27.67
2022-09-07T10:20:35.026Z,27.72
2022-09-07T10:23:02.638Z,28.23
2022-09-07T10:25:33.628Z,28.13
2022-09-07T10:28:15.574Z,28.47
2022-09-07T10:30:42.124Z,29.42
2022-09-07T10:33:14.654Z,29.77
2022-09-07T10:36:04.440Z,28.47
2022-09-07T10:38:34.708Z,29.57
2022-09-07T10:41:01.170Z,29.22
2022-09-07T10:43:49.747Z,30.50
2022-09-07T10:49:27.920Z,29.52
2022-09-07T10:51:54.356Z,29.02
2022-09-07T10:54:36.441Z,27.70
2022-09-07T10:57:15.126Z,29.92
2022-09-07T11:02:31.170Z,28.24
2022-09-07T11:04:57.655Z,29.70
2022-09-07T11:07:47.633Z,29.99
2022-09-07T11:10:32.594Z,30.19
2022-09-07T11:13:02.654Z,30.95
2022-09-07T11:15:35.473Z,30.45
2022-09-07T11:18:15.070Z,30.68
2022-09-07T11:20:55.305Z,30.85
2022-09-07T11:23:21.875Z,29.78
2022-09-07T11:26:01.717Z,31.45
2022-09-07T11:28:34.698Z,31.90
2022-09-07T11:31:04.870Z,30.88
2022-09-07T11:33:36.813Z,31.04
2022-09-07T11:36:12.789Z,31.39
2022-09-07T11:38:39.241Z,30.70
2022-09-07T11:41:24.497Z,30.12
2022-09-07T11:44:13.437Z,30.66
2022-09-07T11:46:39.962Z,31.54
2022-09-07T11:49:12.647Z,31.70
2022-09-07T11:51:41.991Z,29.55
2022-09-07T11:54:28.716Z,31.47
2022-09-07T11:57:07.806Z,32.12
2022-09-07T11:59:46.526Z,31.70
2022-09-07T12:02:48.674Z,31.11
2022-09-07T12:05:36.831Z,31.06
2022-09-07T12:08:09.504Z,31.19
2022-09-07T12:10:41.915Z,30.71
2022-09-07T12:13:27.174Z,30.73
2022-09-07T12:16:03.027Z,31.06
2022-09-07T12:18:32.827Z,30.58
2022-09-07T12:20:59.365Z,31.20
2022-09-07T12:23:32.342Z,31.50
2022-09-07T12:26:17.665Z,31.50
2022-09-07T12:28:44.085Z,30.73
2022-09-07T12:31:14.585Z,30.86
2022-09-07T12:33:41.211Z,31.59
2022-09-07T12:36:25.686Z,31.42
2022-09-07T12:39:06.086Z,31.48
2022-09-07T12:41:43.912Z,30.76
2022-09-07T12:44:29.067Z,30.20
2022-09-07T12:46:56.847Z,29.95
2022-09-07T12:49:32.465Z,30.46
2022-09-07T12:52:03.501Z,29.88
2022-09-07T12:54:43.859Z,29.55
2022-09-07T12:57:33.390Z,29.04
2022-09-07T13:00:17.434Z,29.36
2022-09-07T13:02:56.876Z,29.81
2022-09-07T13:05:30.965Z,30.64
2022-09-07T13:08:09.183Z,30.55
2022-09-07T13:10:37.039Z,30.39
2022-09-07T13:15:49.044Z,30.00
2022-09-07T13:18:28.132Z,29.51
2022-09-07T13:21:18.452Z,30.33
2022-09-07T13:24:45.786Z,30.08
2022-09-07T13:27:00.669Z,29.48
2022-09-07T13:29:38.613Z,28.99
2022-09-07T13:32:08.235Z,28.90
2022-09-07T13:34:41.247Z,28.17
2022-09-07T13:37:15.009Z,27.72
2022-09-07T13:39:45.555Z,27.57
2022-09-07T13:42:16.771Z,27.37
2022-09-07T13:44:51.302Z,27.36
2022-09-07T13:47:36.611Z,27.02
2022-09-07T13:50:22.211Z,26.70
2022-09-07T13:52:57.575Z,27.31
2022-09-07T13:55:42.479Z,27.12
2022-09-07T13:58:14.479Z,26.89
2022-09-07T14:00:59.164Z,26.91
2022-09-07T14:03:27.711Z,27.25
2022-09-07T14:06:12.906Z,27.05
2022-09-07T14:08:39.917Z,27.28
2022-09-07T14:11:17.066Z,27.25
2022-09-07T14:13:43.574Z,27.13
2022-09-07T14:16:10.083Z,27.31
2022-09-07T14:18:36.778Z,27.65
2022-09-07T14:21:03.504Z,28.27
2022-09-07T14:23:31.355Z,28.02
2022-09-07T14:26:16.041Z,27.79
2022-09-07T14:28:45.839Z,27.76
2022-09-07T14:31:14.442Z,26.30
2022-09-07T14:33:46.902Z,25.46
2022-09-07T14:36:37.342Z,24.98
2022-09-07T14:39:07.747Z,24.65
2022-09-07T14:41:38.354Z,24.83
2022-09-07T14:44:04.930Z,23.97
2022-09-07T14:46:35.562Z,22.95
2022-09-07T14:49:07.832Z,22.60
2022-09-07T14:51:36.637Z,22.30
2022-09-07T14:54:07.585Z,22.44
2022-09-07T14:56:34.152Z,22.30
2022-09-07T14:59:00.542Z,22.12
2022-09-07T15:01:42.874Z,22.05
2022-09-07T15:04:16.799Z,22.17
2022-09-07T15:09:37.347Z,22.23
2022-09-07T15:12:03.990Z,22.70
2022-09-07T15:14:30.507Z,22.83
2022-09-07T15:19:45.660Z,22.23
2022-09-07T15:22:13.431Z,22.64
2022-09-07T15:24:39.970Z,22.66
2022-09-07T15:27:18.190Z,22.57
2022-09-07T15:29:44.605Z,21.82
2022-09-07T15:32:11.122Z,21.67
2022-09-07T15:34:37.659Z,21.88
2022-09-07T15:38:01.110Z,21.78
2022-09-07T15:39:51.110Z,21.83
2022-09-07T15:45:05.326Z,21.69
2022-09-07T15:47:51.049Z,21.70
2022-09-07T15:50:18.397Z,21.68
2022-09-07T15:52:46.329Z,21.58
2022-09-07T15:55:13.730Z,21.63
2022-09-07T15:58:09.048Z,21.75
2022-09-07T16:00:27.086Z,21.72
2022-09-07T16:03:09.390Z,21.59
2022-09-07T16:05:39.886Z,21.68
2022-09-07T16:10:53.879Z,21.25
2022-09-07T16:13:20.914Z,21.06
2022-09-07T16:15:48.810Z,21.09
2022-09-07T16:18:17.468Z,20.84
2022-09-07T16:20:44.401Z,20.93
2022-09-07T16:23:13.691Z,20.69
2022-09-07T16:25:42.256Z,21.14
2022-09-07T16:28:09.196Z,20.86
2022-09-07T16:30:38.953Z,20.84
2022-09-07T16:33:05.537Z,20.72
2022-09-07T16:35:32.906Z,20.69
2022-09-07T16:40:46.432Z,20.47
2022-09-07T16:43:12.884Z,20.11
2022-09-07T16:48:25.710Z,20.04
2022-09-07T16:50:58.949Z,19.50
2022-09-07T16:53:29.454Z,19.65
2022-09-07T16:56:03.206Z,19.70
2022-09-07T16:58:37.265Z,19.66
2022-09-07T17:01:05.191Z,19.63
2022-09-07T17:03:31.907Z,19.53
2022-09-07T17:06:02.171Z,19.51
2022-09-07T17:08:29.294Z,19.42
2022-09-07T17:11:00.457Z,19.38
2022-09-07T17:13:26.926Z,19.38
2022-09-07T17:15:53.413Z,19.40
2022-09-07T17:19:28.814Z,19.43
2022-09-07T17:21:06.457Z,19.49
2022-09-07T17:23:43.252Z,19.38
2022-09-07T17:26:13.967Z,19.42
2022-09-07T17:28:41.542Z,19.48
2022-09-07T17:32:23.871Z,19.58
2022-09-07T17:33:59.120Z,19.69
2022-09-07T17:36:26.487Z,19.70
2022-09-07T17:41:39.497Z,19.93
2022-09-07T17:44:06.459Z,19.41
2022-09-07T17:46:32.873Z,19.54
2022-09-07T17:49:00.987Z,19.66
2022-09-07T17:51:28.663Z,19.43
2022-09-07T17:53:59.810Z,19.62
2022-09-07T17:56:26.278Z,19.51
2022-09-07T17:58:53.746Z,19.61
2022-09-07T18:01:20.855Z,19.53
2022-09-07T18:03:47.640Z,19.34
2022-09-07T18:06:14.648Z,19.70
2022-09-07T18:08:41.086Z,19.83
2022-09-07T18:13:56.910Z,19.47
2022-09-07T18:16:28.075Z,19.16
2022-09-07T18:18:55.203Z,19.10
2022-09-07T18:21:23.000Z,19.45
2022-09-07T18:23:52.993Z,19.25
2022-09-07T18:26:19.476Z,19.23
2022-09-07T18:29:04.842Z,18.88
2022-09-07T18:31:33.466Z,19.05
2022-09-07T18:34:01.678Z,19.07
2022-09-07T18:36:29.118Z,18.94
2022-09-07T18:38:55.702Z,18.86
2022-09-07T18:41:22.139Z,18.89
2022-09-07T18:43:48.634Z,18.83
2022-09-07T18:46:19.802Z,18.81
2022-09-07T18:48:46.249Z,18.84
2022-09-07T18:51:12.927Z,18.52
2022-09-07T18:53:39.410Z,18.61
2022-09-07T18:56:07.403Z,18.64
2022-09-07T18:58:34.397Z,18.63
2022-09-07T19:01:04.613Z,18.59
2022-09-07T19:03:31.623Z,18.70
2022-09-07T19:06:06.629Z,19.03
2022-09-07T19:08:33.930Z,19.03
2022-09-07T19:11:07.660Z,19.05
2022-09-07T19:13:35.019Z,19.17
2022-09-07T19:16:05.965Z,19.11
2022-09-07T19:18:33.203Z,19.04
2022-09-07T19:21:06.614Z,19.37
2022-09-07T19:23:33.378Z,19.42
2022-09-07T19:26:00.872Z,19.61
2022-09-07T19:28:27.354Z,19.48
2022-09-07T19:30:54.127Z,19.19
2022-09-07T19:33:22.030Z,19.22
2022-09-07T19:35:48.546Z,19.04
2022-09-07T19:38:14.994Z,18.97
2022-09-07T19:40:41.444Z,18.96
2022-09-07T19:43:07.926Z,18.98
2022-09-07T19:45:37.270Z,19.09
2022-09-07T19:48:03.806Z,19.15
2022-09-07T19:50:31.370Z,18.97
2022-09-07T19:52:57.789Z,18.87
2022-09-07T19:55:24.310Z,18.87
2022-09-07T19:57:51.999Z,19.01
2022-09-07T20:00:19.265Z,18.73
2022-09-07T20:02:47.686Z,18.63
2022-09-07T20:05:14.649Z,18.54
2022-09-07T20:07:41.140Z,18.78
2022-09-07T20:10:07.824Z,18.26
2022-09-07T20:12:34.265Z,18.13
2022-09-07T20:15:00.777Z,18.22
2022-09-07T20:17:30.699Z,18.36
2022-09-07T20:20:01.086Z,18.25
2022-09-07T20:22:27.493Z,18.23
2022-09-07T20:24:54.054Z,18.09
2022-09-07T20:27:20.782Z,18.08
2022-09-07T20:29:47.363Z,18.23
2022-09-07T20:32:13.813Z,18.09
2022-09-07T20:34:40.270Z,17.87
2022-09-07T20:37:07.025Z,17.93
2022-09-07T20:39:38.397Z,17.84
2022-09-07T20:42:06.615Z,17.93
2022-09-07T20:44:33.103Z,18.04
2022-09-07T20:46:59.818Z,18.09
2022-09-07T20:49:26.303Z,18.07
2022-09-07T20:51:52.755Z,18.07
2022-09-07T20:54:19.273Z,18.03
2022-09-07T20:56:45.692Z,17.90
2022-09-07T20:59:12.235Z,17.83
2022-09-07T21:01:38.701Z,17.80
2022-09-07T21:04:06.249Z,17.79
2022-09-07T21:06:32.994Z,18.01
2022-09-07T21:08:59.605Z,18.20
2022-09-07T21:11:26.019Z,18.20
2022-09-07T21:13:57.037Z,18.12
2022-09-07T21:16:25.076Z,18.24
2022-09-07T21:18:53.558Z,18.33
2022-09-07T21:21:20.768Z,18.48
2022-09-07T21:23:47.419Z,18.12
2022-09-07T21:26:14.029Z,18.08
2022-09-07T21:28:40.510Z,18.08
2022-09-07T21:31:07.934Z,18.14
2022-09-07T21:33:35.770Z,18.04
2022-09-07T21:36:06.058Z,17.89
2022-09-07T21:38:33.794Z,17.88
2022-09-07T21:41:04.934Z,17.93
2022-09-07T21:43:31.446Z,17.90
2022-09-07T21:45:58.059Z,17.88
2022-09-07T21:48:24.476Z,17.85
2022-09-07T21:50:56.438Z,17.93
2022-09-07T21:53:22.903Z,17.73
2022-09-07T21:55:59.284Z,17.76
2022-09-07T21:58:26.573Z,17.86
2022-09-07T22:00:53.852Z,17.77
2022-09-07T22:03:21.335Z,17.78
2022-09-07T22:05:47.975Z,17.79
2022-09-07T22:08:14.615Z,17.67
2022-09-07T22:10:41.930Z,17.72
2022-09-07T22:13:08.476Z,17.79
2022-09-07T22:15:37.574Z,17.72
2022-09-07T22:18:04.841Z,17.49
2022-09-07T22:20:32.166Z,17.63
2022-09-07T22:22:59.301Z,17.37
2022-09-07T22:25:26.456Z,17.53
2022-09-07T22:27:53.354Z,17.42
2022-09-07T22:30:20.259Z,17.37
2022-09-07T22:32:47.763Z,17.27
2022-09-07T22:35:14.698Z,17.16
2022-09-07T22:37:41.114Z,17.29
2022-09-07T22:40:07.933Z,17.44
2022-09-07T22:42:34.435Z,17.43
2022-09-07T22:45:00.840Z,17.38
2022-09-07T22:47:27.289Z,17.29
2022-09-07T22:49:53.958Z,17.06
2022-09-07T22:52:20.361Z,16.96
2022-09-07T22:54:46.779Z,16.84
2022-09-07T22:57:13.291Z,16.98
2022-09-07T22:59:39.712Z,16.95
2022-09-07T23:02:06.149Z,17.07
2022-09-07T23:04:32.653Z,16.99
2022-09-07T23:06:59.253Z,16.90
2022-09-07T23:09:25.721Z,16.79
2022-09-07T23:11:52.210Z,16.73
2022-09-07T23:14:20.320Z,16.76
2022-09-07T23:16:47.030Z,16.88
2022-09-07T23:19:14.156Z,17.07
2022-09-07T23:21:40.934Z,16.98
2022-09-07T23:24:07.879Z,16.86
2022-09-07T23:26:34.415Z,16.76
2022-09-07T23:29:02.273Z,16.63
2022-09-07T23:31:29.614Z,16.50
2022-09-07T23:33:56.243Z,16.39
2022-09-07T23:36:23.217Z,16.51
2022-09-07T23:38:50.080Z,16.63
2022-09-07T23:41:19.458Z,16.72
2022-09-07T23:43:46.065Z,16.76
2022-09-07T23:46:13.465Z,16.56
2022-09-07T23:48:39.972Z,16.63
2022-09-07T23:51:06.615Z,16.55
2022-09-07T23:53:33.208Z,16.49
2022-09-07T23:55:59.784Z,16.51
2022-09-07T23:58:26.314Z,16.33
